createdAt,value
2018-01-05T00:02:25.037Z,83.03
2018-01-05T00:04:54.509Z,83.82
2018-01-05T00:07:23.273Z,83.51
2018-01-05T00:09:52.382Z,83.45
2018-01-05T00:12:21.511Z,83.48
2018-01-05T00:14:49.842Z,83.53
2018-01-05T00:17:18.989Z,83.70
2018-01-05T00:19:47.341Z,84.08
2018-01-05T00:22:16.433Z,85.16
2018-01-05T00:24:45.562Z,85.31
2018-01-05T00:27:13.888Z,85.21
2018-01-05T00:29:43.020Z,85.11
2018-01-05T00:32:11.376Z,85.09
2018-01-05T00:34:40.137Z,85.03
2018-01-05T00:37:08.481Z,84.94
2018-01-05T00:39:37.242Z,84.90
2018-01-05T00:42:05.569Z,84.66
2018-01-05T00:44:34.285Z,84.38
2018-01-05T00:47:03.438Z,84.25
2018-01-05T00:49:32.216Z,84.09
2018-01-05T00:52:00.526Z,83.95
2018-01-05T00:54:28.842Z,83.81
2018-01-05T00:56:57.192Z,83.44
2018-01-05T00:59:26.657Z,83.10
2018-01-05T01:01:55.029Z,82.80
2018-01-05T01:04:23.380Z,82.45
2018-01-05T01:06:51.712Z,81.78
2018-01-05T01:09:20.064Z,81.30
2018-01-05T01:11:48.388Z,80.80
2018-01-05T01:14:17.508Z,80.38
2018-01-05T01:16:45.888Z,79.99
2018-01-05T01:19:14.221Z,79.41
2018-01-05T01:21:43.352Z,78.94
2018-01-05T01:24:11.668Z,78.22
2018-01-05T01:26:40.416Z,78.08
2018-01-05T01:29:09.184Z,77.62
2018-01-05T01:31:38.272Z,77.22
2018-01-05T01:34:06.636Z,77.61
2018-01-05T01:36:34.984Z,77.87
2018-01-05T01:39:04.076Z,78.18
2018-01-05T01:41:33.220Z,78.52
2018-01-05T01:44:01.976Z,78.49
2018-01-05T01:46:30.331Z,78.71
2018-01-05T01:48:59.089Z,78.92
2018-01-05T01:51:28.223Z,79.08
2018-01-05T01:53:56.936Z,78.99
2018-01-05T01:56:25.259Z,78.67
2018-01-05T01:58:54.388Z,78.72
2018-01-05T02:01:22.720Z,78.59
2018-01-05T02:03:51.856Z,77.85
2018-01-05T02:06:20.948Z,76.87
2018-01-05T02:08:49.273Z,75.99
2018-01-05T02:11:18.764Z,75.65
2018-01-05T02:13:47.101Z,75.50
2018-01-05T02:16:15.460Z,74.89
2018-01-05T02:18:44.205Z,74.31
2018-01-05T02:21:12.535Z,74.55
2018-01-05T02:23:41.779Z,75.10
2018-01-05T02:26:10.121Z,75.64
2018-01-05T02:28:38.515Z,76.26
2018-01-05T02:31:06.840Z,76.77
2018-01-05T02:33:35.595Z,77.06
2018-01-05T02:36:03.912Z,77.28
2018-01-05T02:38:32.276Z,77.55
2018-01-05T02:41:01.408Z,77.74
2018-01-05T02:43:29.780Z,77.94
2018-01-05T02:45:58.121Z,77.62
2018-01-05T02:48:27.587Z,77.58
2018-01-05T02:50:55.964Z,77.02
2018-01-05T02:53:25.107Z,76.87
2018-01-05T02:55:54.208Z,77.10
2018-01-05T02:58:22.539Z,77.11
2018-01-05T03:00:50.900Z,77.34
2018-01-05T03:03:19.640Z,77.13
2018-01-05T03:05:48.773Z,76.93
2018-01-05T03:08:17.545Z,77.30
2018-01-05T03:10:45.907Z,77.55
2018-01-05T03:13:15.004Z,77.24
2018-01-05T03:15:44.135Z,77.03
2018-01-05T03:18:12.511Z,77.01
2018-01-05T03:20:40.891Z,77.33
2018-01-05T03:23:09.231Z,76.89
2018-01-05T03:25:38.335Z,76.10
2018-01-05T03:28:07.497Z,75.15
2018-01-05T03:30:36.597Z,74.60
2018-01-05T03:33:05.315Z,74.89
2018-01-05T03:35:34.455Z,75.03
2018-01-05T03:38:03.104Z,74.82
2018-01-05T03:40:31.431Z,74.78
2018-01-05T03:42:59.824Z,74.23
2018-01-05T03:45:28.547Z,74.10
2018-01-05T03:47:57.327Z,73.44
2018-01-05T03:50:26.427Z,73.36
2018-01-05T03:52:54.799Z,73.19
2018-01-05T03:55:23.931Z,73.18
2018-01-05T03:57:52.663Z,73.14
2018-01-05T04:00:21.415Z,72.68
2018-01-05T04:02:50.139Z,72.72
2018-01-05T04:05:19.283Z,72.63
2018-01-05T04:07:47.639Z,72.46
2018-01-05T04:10:15.947Z,72.53
2018-01-05T04:12:45.102Z,72.67
2018-01-05T04:15:14.407Z,72.85
2018-01-05T04:17:43.167Z,72.80
2018-01-05T04:20:11.502Z,72.46
2018-01-05T04:22:40.251Z,72.37
2018-01-05T04:25:09.381Z,72.43
2018-01-05T04:27:38.534Z,71.68
2018-01-05T04:30:07.643Z,71.11
2018-01-05T04:32:36.047Z,69.85
2018-01-05T04:35:04.431Z,68.91
2018-01-05T04:37:32.751Z,69.01
2018-01-05T04:40:02.843Z,69.14
2018-01-05T04:42:31.180Z,69.56
2018-01-05T04:44:59.555Z,69.78
2018-01-05T04:47:28.634Z,70.06
2018-01-05T04:49:58.116Z,70.23
2018-01-05T04:52:26.826Z,69.85
2018-01-05T04:54:55.578Z,69.64
2018-01-05T04:57:24.712Z,70.39
2018-01-05T04:59:54.382Z,70.06
2018-01-05T05:02:22.735Z,69.73
2018-01-05T05:04:51.831Z,69.70
2018-01-05T05:07:20.161Z,69.99
2018-01-05T05:09:49.286Z,70.33
2018-01-05T05:12:18.394Z,69.88
2018-01-05T05:14:47.519Z,70.02
2018-01-05T05:17:16.276Z,69.98
2018-01-05T05:19:44.658Z,69.76
2018-01-05T05:22:13.369Z,69.41
2018-01-05T05:24:41.738Z,68.76
2018-01-05T05:27:10.835Z,68.45
2018-01-05T05:29:39.210Z,68.25
2018-01-05T05:32:08.302Z,67.79
2018-01-05T05:34:36.614Z,67.43
2018-01-05T05:37:05.362Z,67.24
2018-01-05T05:39:33.682Z,67.29
2018-01-05T05:42:02.796Z,66.66
2018-01-05T05:44:31.122Z,66.81
2018-01-05T05:46:59.515Z,66.71
2018-01-05T05:49:28.974Z,66.99
2018-01-05T05:51:57.304Z,67.10
2018-01-05T05:54:26.038Z,67.23
2018-01-05T05:56:54.367Z,66.78
2018-01-05T05:59:23.493Z,66.21
2018-01-05T06:01:51.842Z,65.60
2018-01-05T06:04:20.224Z,65.16
2018-01-05T06:06:49.326Z,65.24
2018-01-05T06:09:18.434Z,64.92
2018-01-05T06:11:47.602Z,64.39
2018-01-05T06:14:16.319Z,64.71
2018-01-05T06:16:45.119Z,64.71
2018-01-05T06:19:14.222Z,64.22
2018-01-05T06:21:42.980Z,64.15
2018-01-05T06:24:12.086Z,64.51
2018-01-05T06:26:40.409Z,64.77
2018-01-05T06:29:08.774Z,64.99
2018-01-05T06:31:37.138Z,64.83
2018-01-05T06:34:05.466Z,65.08
2018-01-05T06:36:33.846Z,65.33
2018-01-05T06:39:03.742Z,65.11
2018-01-05T06:41:33.629Z,65.22
2018-01-05T06:44:03.082Z,65.33
2018-01-05T06:46:32.198Z,65.12
2018-01-05T06:49:00.924Z,65.58
2018-01-05T06:51:29.665Z,65.64
2018-01-05T06:53:59.341Z,66.37
2018-01-05T06:56:27.693Z,66.76
2018-01-05T06:58:56.027Z,66.94
2018-01-05T07:01:25.154Z,67.63
2018-01-05T07:03:54.282Z,67.92
2018-01-05T07:06:22.601Z,68.02
2018-01-05T07:08:51.725Z,68.18
2018-01-05T07:11:20.050Z,68.32
2018-01-05T07:13:48.821Z,68.31
2018-01-05T07:16:17.140Z,68.66
2018-01-05T07:18:45.882Z,68.97
2018-01-05T07:21:14.753Z,68.56
2018-01-05T07:23:43.122Z,68.29
2018-01-05T07:26:11.494Z,68.15
2018-01-05T07:28:39.845Z,67.79
2018-01-05T07:31:08.973Z,67.59
2018-01-05T07:33:37.325Z,67.24
2018-01-05T07:36:05.677Z,67.24
2018-01-05T07:38:34.038Z,67.01
2018-01-05T07:41:02.433Z,66.92
2018-01-05T07:43:30.793Z,66.61
2018-01-05T07:45:59.161Z,66.72
2018-01-05T07:48:27.533Z,66.60
2018-01-05T07:50:56.250Z,66.19
2018-01-05T07:53:24.621Z,65.71
2018-01-05T07:55:53.726Z,65.51
2018-01-05T07:58:22.109Z,65.55
2018-01-05T08:00:51.254Z,65.33
2018-01-05T08:03:19.577Z,65.46
2018-01-05T08:05:47.965Z,64.67
2018-01-05T08:08:17.438Z,64.27
2018-01-05T08:10:45.799Z,64.06
2018-01-05T08:13:14.123Z,63.67
2018-01-05T08:15:42.945Z,63.69
2018-01-05T08:18:11.762Z,63.30
2018-01-05T08:20:40.081Z,62.92
2018-01-05T08:23:09.241Z,62.87
2018-01-05T08:25:38.305Z,63.08
2018-01-05T08:28:07.983Z,63.13
2018-01-05T08:30:37.233Z,63.11
2018-01-05T08:33:07.715Z,62.51
2018-01-05T08:35:36.857Z,61.54
2018-01-05T08:38:05.289Z,60.93
2018-01-05T08:40:33.626Z,60.80
2018-01-05T08:43:01.997Z,60.43
2018-01-05T08:45:31.991Z,60.91
2018-01-05T08:48:00.357Z,61.27
2018-01-05T08:50:30.413Z,61.42
2018-01-05T08:52:59.605Z,60.96
2018-01-05T08:55:28.793Z,60.75
2018-01-05T08:57:57.166Z,60.64
2018-01-05T09:00:29.829Z,60.52
2018-01-05T09:02:58.621Z,61.42
2018-01-05T09:05:27.087Z,61.68
2018-01-05T09:07:55.469Z,61.63
2018-01-05T09:10:24.528Z,62.19
2018-01-05T09:12:52.965Z,63.63
2018-01-05T09:15:21.336Z,64.00
2018-01-05T09:17:49.685Z,64.24
2018-01-05T09:20:19.581Z,64.41
2018-01-05T09:22:48.430Z,63.71
2018-01-05T09:25:17.188Z,63.06
2018-01-05T09:27:45.569Z,62.63
2018-01-05T09:30:13.893Z,61.77
2018-01-05T09:32:42.242Z,61.34
2018-01-05T09:35:10.984Z,61.38
2018-01-05T09:37:40.078Z,60.53
2018-01-05T09:40:09.221Z,60.02
2018-01-05T09:42:38.900Z,59.14
2018-01-05T09:45:07.268Z,58.65
2018-01-05T09:47:35.994Z,59.19
2018-01-05T09:50:04.361Z,60.27
2018-01-05T09:52:34.285Z,60.66
2018-01-05T09:55:03.418Z,61.31
2018-01-05T09:57:31.750Z,61.66
2018-01-05T10:00:00.869Z,61.82
2018-01-05T10:02:29.187Z,61.59
2018-01-05T10:04:58.312Z,61.72
2018-01-05T10:07:26.696Z,62.14
2018-01-05T10:09:55.024Z,62.48
2018-01-05T10:12:24.164Z,62.91
2018-01-05T10:14:52.492Z,63.50
2018-01-05T10:17:20.850Z,63.53
2018-01-05T10:19:49.160Z,63.79
2018-01-05T10:22:18.252Z,63.44
2018-01-05T10:24:47.380Z,63.03
2018-01-05T10:27:16.477Z,62.86
2018-01-05T10:29:44.827Z,62.54
2018-01-05T10:32:13.961Z,62.04
2018-01-05T10:34:42.328Z,61.68
2018-01-05T10:37:10.722Z,61.84
2018-01-05T10:39:39.055Z,62.10
2018-01-05T10:42:08.941Z,62.04
2018-01-05T10:44:37.319Z,62.92
2018-01-05T10:47:06.052Z,62.54
2018-01-05T10:49:35.202Z,62.12
2018-01-05T10:52:03.548Z,61.78
2018-01-05T10:54:31.932Z,61.54
2018-01-05T10:57:00.288Z,61.39
2018-01-05T10:59:29.549Z,61.46
2018-01-05T11:01:58.661Z,62.06
2018-01-05T11:04:27.792Z,62.26
2018-01-05T11:06:57.525Z,62.20
2018-01-05T11:09:26.620Z,61.67
2018-01-05T11:11:54.972Z,61.73
2018-01-05T11:14:23.341Z,60.90
2018-01-05T11:16:51.687Z,60.79
2018-01-05T11:19:20.824Z,60.15
2018-01-05T11:21:49.980Z,59.91
2018-01-05T11:24:19.127Z,59.60
2018-01-05T11:26:47.480Z,59.87
2018-01-05T11:29:16.608Z,60.18
2018-01-05T11:31:44.940Z,60.63
2018-01-05T11:34:13.725Z,60.45
2018-01-05T11:36:42.816Z,60.52
2018-01-05T11:39:11.955Z,60.49
2018-01-05T11:41:41.836Z,60.91
2018-01-05T11:44:11.023Z,60.74
2018-01-05T11:46:40.151Z,60.45
2018-01-05T11:49:09.263Z,60.13
2018-01-05T11:51:37.612Z,60.25
2018-01-05T11:54:06.393Z,60.50
2018-01-05T11:56:34.724Z,60.04
2018-01-05T11:59:03.076Z,60.36
2018-01-05T12:01:31.455Z,60.20
2018-01-05T12:04:00.231Z,60.11
2018-01-05T12:06:29.712Z,60.85
2018-01-05T12:08:59.639Z,61.42
2018-01-05T12:11:28.378Z,61.58
2018-01-05T12:13:56.755Z,62.19
2018-01-05T12:16:25.515Z,62.55
2018-01-05T12:18:54.611Z,62.52
2018-01-05T12:21:22.955Z,61.89
2018-01-05T12:23:52.690Z,61.81
2018-01-05T12:26:21.039Z,61.96
2018-01-05T12:28:50.159Z,61.32
2018-01-05T12:31:18.527Z,60.38
2018-01-05T12:33:47.304Z,61.47
2018-01-05T12:36:15.649Z,62.04
2018-01-05T12:38:44.427Z,62.46
2018-01-05T12:41:13.148Z,63.04
2018-01-05T12:43:42.871Z,63.15
2018-01-05T12:46:11.205Z,63.60
2018-01-05T12:48:40.348Z,63.62
2018-01-05T12:51:10.185Z,64.19
2018-01-05T12:53:39.351Z,63.99
2018-01-05T12:56:07.685Z,63.65
2018-01-05T12:58:36.057Z,63.60
2018-01-05T13:01:04.392Z,63.50
2018-01-05T13:03:32.763Z,63.60
2018-01-05T13:06:01.103Z,63.46
2018-01-05T13:08:29.463Z,63.19
2018-01-05T13:10:57.790Z,62.39
2018-01-05T13:13:26.194Z,61.26
2018-01-05T13:15:55.383Z,60.58
2018-01-05T13:18:23.735Z,61.15
2018-01-05T13:20:52.892Z,61.30
2018-01-05T13:23:21.679Z,61.40
2018-01-05T13:25:50.059Z,61.44
2018-01-05T13:28:19.201Z,61.13
2018-01-05T13:30:49.272Z,61.34
2018-01-05T13:33:18.727Z,61.54
2018-01-05T13:35:48.767Z,61.86
2018-01-05T13:38:17.703Z,62.11
2018-01-05T13:40:47.692Z,62.39
2018-01-05T13:43:17.076Z,62.11
2018-01-05T13:45:45.867Z,62.13
2018-01-05T13:48:14.202Z,62.31
2018-01-05T13:50:43.728Z,62.75
2018-01-05T13:53:12.086Z,63.29
2018-01-05T13:55:41.379Z,63.61
2018-01-05T13:58:11.114Z,63.74
2018-01-05T14:00:39.944Z,63.52
2018-01-05T14:03:08.286Z,63.90
2018-01-05T14:05:36.618Z,63.89
2018-01-05T14:08:05.011Z,64.02
2018-01-05T14:10:34.148Z,64.31
2018-01-05T14:13:03.671Z,65.01
2018-01-05T14:15:33.286Z,65.20
2018-01-05T14:18:02.222Z,65.22
2018-01-05T14:20:31.413Z,66.19
2018-01-05T14:22:59.802Z,65.42
2018-01-05T14:25:29.864Z,66.17
2018-01-05T14:27:58.540Z,67.07
2018-01-05T14:30:28.331Z,69.40
2018-01-05T14:32:57.534Z,71.54
2018-01-05T14:35:27.406Z,72.68
2018-01-05T14:37:56.121Z,71.48
2018-01-05T14:40:25.215Z,69.82
2018-01-05T14:42:53.586Z,69.71
2018-01-05T14:45:23.051Z,70.98
2018-01-05T14:47:51.406Z,72.94
2018-01-05T14:53:03.209Z,76.36
2018-01-05T14:55:31.554Z,78.31
2018-01-05T14:58:00.666Z,78.29
2018-01-05T15:00:29.022Z,77.97
2018-01-05T15:02:58.133Z,78.08
2018-01-05T15:05:27.218Z,79.81
2018-01-05T15:07:56.095Z,79.43
2018-01-05T15:10:25.982Z,79.48
2018-01-05T15:12:54.940Z,79.76
2018-01-05T15:15:24.410Z,79.46
2018-01-05T15:17:53.640Z,79.73
2018-01-05T15:20:22.842Z,79.85
2018-01-05T15:22:52.343Z,80.80
2018-01-05T15:25:20.666Z,81.79
2018-01-05T15:27:49.414Z,82.50
2018-01-05T15:30:17.858Z,82.44
2018-01-05T15:32:47.722Z,82.45
2018-01-05T15:35:17.623Z,82.52
2018-01-05T15:37:46.466Z,82.56
2018-01-05T15:40:16.446Z,82.90
2018-01-05T15:42:44.761Z,83.02
2018-01-05T15:45:16.154Z,83.33
2018-01-05T15:47:45.854Z,83.47
2018-01-05T15:50:14.266Z,83.70
2018-01-05T15:52:43.535Z,83.73
2018-01-05T15:55:11.974Z,83.65
2018-01-05T15:57:43.440Z,83.53
2018-01-05T16:00:13.380Z,83.33
2018-01-05T16:02:42.287Z,83.03
2018-01-05T16:05:13.156Z,82.70
2018-01-05T16:07:42.374Z,82.46
2018-01-05T16:10:10.714Z,82.06
2018-01-05T16:12:40.698Z,81.59
2018-01-05T16:15:09.085Z,80.88
2018-01-05T16:17:37.429Z,80.88
2018-01-05T16:20:05.818Z,80.80
2018-01-05T16:22:34.241Z,80.62
2018-01-05T16:25:02.701Z,80.58
2018-01-05T16:27:31.734Z,80.75
2018-01-05T16:30:02.038Z,80.55
2018-01-05T16:32:30.477Z,80.56
2018-01-05T16:34:59.710Z,80.58
2018-01-05T16:37:28.222Z,80.47
2018-01-05T16:39:58.111Z,80.49
2018-01-05T16:42:28.546Z,80.05
2018-01-05T16:44:57.206Z,79.37
2018-01-05T16:47:26.400Z,79.38
2018-01-05T16:49:55.283Z,79.65
2018-01-05T16:52:23.676Z,79.88
2018-01-05T16:54:52.063Z,79.96
2018-01-05T16:57:20.781Z,80.00
2018-01-05T17:06:03.771Z,80.25
2018-01-05T17:08:33.352Z,80.31
2018-01-05T17:11:04.966Z,80.35
2018-01-05T17:13:33.370Z,80.59
2018-01-05T17:16:02.805Z,80.93
2018-01-05T17:18:32.041Z,80.96
2018-01-05T17:21:00.403Z,81.03
2018-01-05T17:23:28.770Z,81.07
2018-01-05T17:25:58.141Z,81.06
2018-01-05T17:28:28.221Z,81.04
2018-01-05T17:30:56.803Z,81.10
2018-01-05T17:33:33.102Z,81.61
2018-01-05T17:36:02.787Z,82.33
2018-01-05T17:38:31.729Z,82.62
2018-01-05T17:41:00.517Z,82.75
2018-01-05T17:43:28.862Z,82.87
2018-01-05T17:45:58.786Z,82.93
2018-01-05T17:48:28.066Z,82.92
2018-01-05T17:50:56.465Z,82.94
2018-01-05T17:53:24.801Z,82.99
2018-01-05T17:55:54.043Z,83.01
2018-01-05T17:58:23.645Z,83.03
2018-01-05T18:00:52.763Z,82.96
2018-01-05T18:03:21.249Z,82.80
2018-01-05T18:05:49.682Z,82.67
2018-01-05T18:08:18.274Z,82.71
2018-01-05T18:10:48.588Z,82.91
2018-01-05T18:13:17.149Z,83.07
2018-01-05T18:15:45.693Z,83.12
2018-01-05T18:18:14.246Z,83.34
2018-01-05T18:20:43.348Z,83.19
2018-01-05T18:23:12.470Z,83.11
2018-01-05T18:25:42.557Z,83.04
2018-01-05T18:28:12.057Z,82.96
2018-01-05T18:30:43.683Z,82.92
2018-01-05T18:33:12.589Z,82.93
2018-01-05T18:35:44.724Z,82.97
2018-01-05T18:38:13.324Z,82.81
2018-01-05T18:40:42.794Z,82.76
2018-01-05T18:43:11.835Z,82.66
2018-01-05T18:45:40.317Z,82.60
2018-01-05T18:48:08.782Z,82.73
2018-01-05T18:50:37.168Z,82.79
2018-01-05T18:53:06.564Z,82.82
2018-01-05T18:55:36.782Z,82.77
2018-01-05T18:58:05.409Z,82.91
2018-01-05T19:00:34.758Z,82.97
2018-01-05T19:03:03.159Z,82.89
2018-01-05T19:05:32.702Z,82.91
2018-01-05T19:08:01.264Z,82.99
2018-01-05T19:10:30.520Z,82.93
2018-01-05T19:12:58.880Z,82.68
2018-01-05T19:15:28.303Z,82.52
2018-01-05T19:17:56.684Z,82.23
2018-01-05T19:20:25.055Z,82.16
2018-01-05T19:22:53.615Z,82.04
2018-01-05T19:25:23.640Z,82.16
2018-01-05T19:27:52.804Z,82.40
2018-01-05T19:30:23.676Z,82.32
2018-01-05T19:32:55.732Z,82.33
2018-01-05T19:35:24.793Z,82.34
2018-01-05T19:37:54.578Z,82.40
2018-01-05T19:40:24.614Z,82.54
2018-01-05T19:43:06.687Z,82.61
2018-01-05T19:45:35.672Z,82.72
2018-01-05T19:48:07.228Z,82.76
2018-01-05T19:50:37.097Z,82.84
2018-01-05T19:53:06.740Z,83.00
2018-01-05T19:55:36.148Z,83.06
2018-01-05T19:58:05.939Z,83.12
2018-01-05T20:00:35.813Z,83.41
2018-01-05T20:03:05.853Z,83.44
2018-01-05T20:05:34.920Z,83.51
2018-01-05T20:08:04.174Z,83.42
2018-01-05T20:10:33.515Z,83.52
2018-01-05T20:13:01.877Z,83.42
2018-01-05T20:15:31.791Z,83.75
2018-01-05T20:18:00.946Z,83.68
2018-01-05T20:20:30.989Z,83.95
2018-01-05T20:23:00.295Z,84.45
2018-01-05T20:25:32.439Z,84.42
2018-01-05T20:28:02.149Z,84.96
2018-01-05T20:30:38.167Z,85.16
2018-01-05T20:33:17.429Z,85.01
2018-01-05T20:35:45.926Z,85.04
2018-01-05T20:38:15.823Z,84.77
2018-01-05T20:40:45.349Z,84.85
2018-01-05T20:43:14.213Z,84.81
2018-01-05T20:45:42.636Z,84.74
2018-01-05T20:48:11.777Z,85.08
2018-01-05T20:50:41.971Z,85.23
2018-01-05T20:53:15.269Z,85.37
2018-01-05T20:55:45.284Z,85.29
2018-01-05T20:58:15.372Z,85.46
2018-01-05T21:00:43.707Z,85.51
2018-01-05T21:03:13.841Z,85.55
2018-01-05T21:05:43.874Z,85.60
2018-01-05T21:08:13.307Z,85.52
2018-01-05T21:10:41.747Z,85.72
2018-01-05T21:13:11.059Z,85.49
2018-01-05T21:15:39.445Z,85.25
2018-01-05T21:18:07.856Z,85.09
2018-01-05T21:20:36.184Z,85.09
2018-01-05T21:23:04.538Z,84.77
2018-01-05T21:25:34.007Z,84.50
2018-01-05T21:28:03.257Z,84.32
2018-01-05T21:30:32.625Z,84.45
2018-01-05T21:33:03.444Z,84.70
2018-01-05T21:35:32.610Z,84.69
2018-01-05T21:38:02.606Z,84.66
2018-01-05T21:40:33.608Z,84.70
2018-01-05T21:43:05.919Z,84.69
2018-01-05T21:45:38.643Z,84.84
2018-01-05T21:48:10.739Z,84.94
2018-01-05T21:50:44.195Z,84.84
2018-01-05T21:53:15.319Z,85.03
2018-01-05T21:55:44.662Z,84.96
2018-01-05T21:58:14.406Z,84.89
2018-01-05T22:00:44.195Z,84.83
2018-01-05T22:03:15.252Z,85.01
2018-01-05T22:05:44.843Z,84.95
2018-01-05T22:08:14.095Z,84.96
2018-01-05T22:10:43.706Z,84.62
2018-01-05T22:13:13.573Z,84.09
2018-01-05T22:15:42.710Z,83.72
2018-01-05T22:18:13.314Z,83.24
2018-01-05T22:20:41.755Z,83.41
2018-01-05T22:23:12.030Z,82.91
2018-01-05T22:25:41.126Z,82.55
2018-01-05T22:28:09.543Z,82.26
2018-01-05T22:30:39.795Z,81.97
2018-01-05T22:33:08.187Z,81.67
2018-01-05T22:35:36.992Z,81.64
2018-01-05T22:38:05.514Z,81.66
2018-01-05T22:40:33.998Z,81.80
2018-01-05T22:43:03.032Z,81.77
2018-01-05T22:45:32.102Z,81.83
2018-01-05T22:48:01.235Z,81.80
2018-01-05T22:50:30.546Z,81.73
2018-01-05T22:52:58.874Z,81.69
2018-01-05T22:55:28.130Z,81.79
2018-01-05T22:57:56.554Z,81.83
2018-01-05T23:00:25.646Z,81.93
2018-01-05T23:02:54.790Z,81.90
2018-01-05T23:05:23.156Z,81.91
2018-01-05T23:07:52.120Z,81.91
2018-01-05T23:10:21.242Z,81.91
2018-01-05T23:12:50.498Z,81.92
2018-01-05T23:15:19.030Z,82.02
2018-01-05T23:17:48.258Z,82.09
2018-01-05T23:20:16.618Z,82.12
2018-01-05T23:22:46.890Z,82.12
2018-01-05T23:25:17.902Z,82.09
2018-01-05T23:27:46.361Z,82.07
2018-01-05T23:30:15.486Z,82.07
2018-01-05T23:32:43.927Z,82.00
2018-01-05T23:35:12.330Z,82.01
2018-01-05T23:37:40.698Z,82.08
2018-01-05T23:40:09.054Z,82.03
2018-01-05T23:42:37.418Z,81.74
2018-01-05T23:45:05.790Z,81.57
2018-01-05T23:47:34.110Z,81.46
2018-01-05T23:50:02.438Z,81.46
2018-01-05T23:52:31.724Z,81.34
2018-01-05T23:55:00.854Z,81.23
2018-01-05T23:57:29.178Z,81.17
2018-01-05T23:59:57.557Z,81.15
